Eye Of The Wind — GWAK — position and weather

sailwx.info

Track history (hours):
 
Tides and Currents Weather Stations Pressure Air Temp Water Temp Dewpoint Dewpoint Depression Visibility Wind Speed Wind Dir Waves Ship Positions

Eye Of The Wind

Last reported at 2017-Nov-17 00:40 UTC. Time now 2017-Dec-14 06:06 UTC.
Position N 28°28' W 016°15'.
Warning: this ship's position is 27 days out of date.

Length 33 m; draft 2.8 m.

Type: Sailing vessel. MMSI: 233789000.

Date/timePositionNaut miles runAvg speedWind from/ knotsBaromVisibWave heightAir tempDewpointWater temp
2017-Nov-17 00:40N 28°28' W 016°15'  
2017-Nov-09 09:14N 28°44' W 015°43'2 5.7
2017-Nov-09 08:59N 28°44' W 015°41'3 5.9
2017-Nov-09 08:28N 28°44' W 015°38'3 5.9
2017-Nov-09 08:00N 28°44' W 015°35'3 6.0
2017-Nov-09 07:30N 28°45' W 015°31'3 5.6
2017-Nov-09 06:58N 28°45' W 015°28'2 5.4
2017-Nov-09 06:30N 28°45' W 015°25'3 5.8
2017-Nov-09 06:00N 28°46' W 015°22'4 7.5
2017-Nov-09 05:30N 28°46' W 015°18'4 7.5
2017-Nov-09 04:55N 28°46' W 015°13'4 7.3
2017-Nov-09 04:25N 28°46' W 015°09'4 7.3
2017-Nov-09 03:51N 28°47' W 015°04'69 6.8
2017-Nov-08 17:38N 28°50' W 013°45'2 5.9
2017-Nov-08 17:21N 28°51' W 013°43'2 5.6
2017-Nov-08 17:00N 28°52' W 013°41'3 5.3
2017-Nov-08 16:30N 28°53' W 013°39'2 5.0
2017-Nov-08 16:00N 28°54' W 013°36'3 5.9
2017-Nov-08 15:30N 28°56' W 013°33'2 4.8
2017-Nov-08 15:00N 28°58' W 013°32'0 0.5
2017-Nov-08 14:30N 28°58' W 013°32'0 0.9
2017-Nov-08 13:57N 28°58' W 013°32'0 0.0
2017-Nov-08 13:21N 28°58' W 013°32'0 0.0
2017-Nov-08 12:57N 28°58' W 013°32'0 0.0
2017-Nov-08 12:27N 28°58' W 013°32'0 0.0
2017-Nov-08 12:00N 28°58' W 013°32'0 0.0
2017-Nov-08 11:27N 28°58' W 013°32'0 0.0
2017-Nov-08 10:57N 28°58' W 013°32'0 0.0
2017-Nov-08 10:27N 28°58' W 013°32'0 0.0
2017-Nov-07 15:02N 28°58' W 013°32'0 0.1
2017-Nov-07 14:56N 28°58' W 013°32'0 0.0
2017-Nov-07 14:28N 28°58' W 013°32'0 0.0
2017-Nov-07 14:00N 28°58' W 013°32'0 0.0
2017-Nov-07 13:30N 28°58' W 013°32'0 0.0
2017-Nov-07 12:07N 28°58' W 013°32'0 0.0
2017-Nov-07 12:00N 28°58' W 013°32'0 0.0
2017-Nov-07 11:21N 28°58' W 013°32'0 0.0
2017-Nov-07 11:00N 28°58' W 013°32'0 0.0
2017-Nov-07 10:30N 28°58' W 013°32'0 0.0
2017-Nov-07 09:48N 28°58' W 013°32'0 0.0
2017-Nov-07 09:30N 28°58' W 013°32'0 0.0
2017-Nov-07 09:00N 28°58' W 013°32'0 0.0
2017-Nov-07 08:10N 28°58' W 013°32'0 0.0
2017-Nov-07 07:57N 28°58' W 013°32'0 0.0
2017-Nov-07 07:29N 28°58' W 013°32'0 0.0
2017-Nov-07 06:54N 28°58' W 013°32'0 0.0
2017-Nov-07 06:29N 28°58' W 013°32'0 0.0
2017-Nov-07 05:57N 28°58' W 013°32'0 0.0
2017-Nov-07 05:29N 28°58' W 013°32'0 0.0
2017-Nov-07 04:58N 28°58' W 013°32'0 0.0
2017-Nov-07 04:20N 28°58' W 013°32'0 0.0
2017-Nov-07 03:56N 28°58' W 013°32'0 0.0
2017-Nov-07 03:29N 28°58' W 013°32'0 0.0
2017-Nov-07 03:00N 28°58' W 013°32'0 0.0
2017-Nov-07 02:29N 28°58' W 013°32'0 0.0
2017-Nov-07 01:53N 28°58' W 013°32'0 0.0
2017-Nov-07 01:29N 28°58' W 013°32'0 0.0
2017-Nov-07 00:59N 28°58' W 013°32'  
Track history (hours):
 
Tides and Currents Weather Stations Pressure Air Temp Water Temp Dewpoint Dewpoint Depression Visibility Wind Speed Wind Dir Waves Ship Positions

Eye Of The Wind

Last reported at 2017-Nov-17 00:40 UTC. Time now 2017-Dec-14 06:06 UTC.
Position N 28°28' W 016°15'.
Warning: this ship's position is 27 days out of date.

Length 33 m; draft 2.8 m.

Type: Sailing vessel. MMSI: 233789000.

Date/timePositionNaut miles runAvg speedWind from/ knotsBaromVisibWave heightAir tempDewpointWater temp
2017-Nov-17 00:40N 28°28' W 016°15'  
2017-Nov-09 09:14N 28°44' W 015°43'2 5.7
2017-Nov-09 08:59N 28°44' W 015°41'3 5.9
2017-Nov-09 08:28N 28°44' W 015°38'3 5.9
2017-Nov-09 08:00N 28°44' W 015°35'3 6.0
2017-Nov-09 07:30N 28°45' W 015°31'3 5.6
2017-Nov-09 06:58N 28°45' W 015°28'2 5.4
2017-Nov-09 06:30N 28°45' W 015°25'3 5.8
2017-Nov-09 06:00N 28°46' W 015°22'4 7.5
2017-Nov-09 05:30N 28°46' W 015°18'4 7.5
2017-Nov-09 04:55N 28°46' W 015°13'4 7.3
2017-Nov-09 04:25N 28°46' W 015°09'4 7.3
2017-Nov-09 03:51N 28°47' W 015°04'69 6.8
2017-Nov-08 17:38N 28°50' W 013°45'2 5.9
2017-Nov-08 17:21N 28°51' W 013°43'2 5.6
2017-Nov-08 17:00N 28°52' W 013°41'3 5.3
2017-Nov-08 16:30N 28°53' W 013°39'2 5.0
2017-Nov-08 16:00N 28°54' W 013°36'3 5.9
2017-Nov-08 15:30N 28°56' W 013°33'2 4.8
2017-Nov-08 15:00N 28°58' W 013°32'0 0.5
2017-Nov-08 14:30N 28°58' W 013°32'0 0.9
2017-Nov-08 13:57N 28°58' W 013°32'0 0.0
2017-Nov-08 13:21N 28°58' W 013°32'0 0.0
2017-Nov-08 12:57N 28°58' W 013°32'0 0.0
2017-Nov-08 12:27N 28°58' W 013°32'0 0.0
2017-Nov-08 12:00N 28°58' W 013°32'0 0.0
2017-Nov-08 11:27N 28°58' W 013°32'0 0.0
2017-Nov-08 10:57N 28°58' W 013°32'0 0.0
2017-Nov-08 10:27N 28°58' W 013°32'0 0.0
2017-Nov-07 15:02N 28°58' W 013°32'0 0.1
2017-Nov-07 14:56N 28°58' W 013°32'0 0.0
2017-Nov-07 14:28N 28°58' W 013°32'0 0.0
2017-Nov-07 14:00N 28°58' W 013°32'0 0.0
2017-Nov-07 13:30N 28°58' W 013°32'0 0.0
2017-Nov-07 12:07N 28°58' W 013°32'0 0.0
2017-Nov-07 12:00N 28°58' W 013°32'0 0.0
2017-Nov-07 11:21N 28°58' W 013°32'0 0.0
2017-Nov-07 11:00N 28°58' W 013°32'0 0.0
2017-Nov-07 10:30N 28°58' W 013°32'0 0.0
2017-Nov-07 09:48N 28°58' W 013°32'0 0.0
2017-Nov-07 09:30N 28°58' W 013°32'0 0.0
2017-Nov-07 09:00N 28°58' W 013°32'0 0.0
2017-Nov-07 08:10N 28°58' W 013°32'0 0.0
2017-Nov-07 07:57N 28°58' W 013°32'0 0.0
2017-Nov-07 07:29N 28°58' W 013°32'0 0.0
2017-Nov-07 06:54N 28°58' W 013°32'0 0.0
2017-Nov-07 06:29N 28°58' W 013°32'0 0.0
2017-Nov-07 05:57N 28°58' W 013°32'0 0.0
2017-Nov-07 05:29N 28°58' W 013°32'0 0.0
2017-Nov-07 04:58N 28°58' W 013°32'0 0.0
2017-Nov-07 04:20N 28°58' W 013°32'0 0.0
2017-Nov-07 03:56N 28°58' W 013°32'0 0.0
2017-Nov-07 03:29N 28°58' W 013°32'0 0.0
2017-Nov-07 03:00N 28°58' W 013°32'0 0.0
2017-Nov-07 02:29N 28°58' W 013°32'0 0.0
2017-Nov-07 01:53N 28°58' W 013°32'0 0.0
2017-Nov-07 01:29N 28°58' W 013°32'0 0.0
2017-Nov-07 00:59N 28°58' W 013°32'  

Dump ship's entire track history